Time;durP1;ratioP1;P1;durP2;ratioP2;P2;SDS_P1;SDS_P2;PMS_P1;PMS_P2;Temp;Humidity;BMP_temperature;BMP_pressure;BME280_temperature;BME280_humidity;BME280_pressure;Samples;Min_cycle;Max_cycle;Signal;HPM_P1;HPM_P2
2023/10/17 00:00:28;;;;;;;2.25;0.63;;;;;;;21.34;46.41;98693.53;2079337;28;20102;-63
2023/10/17 00:01:32;;;;;;;3.05;1.00;;;;;;;21.34;46.69;98690.00;2082267;28;20060;-64
2023/10/17 00:02:34;;;;;;;2.78;1.40;;;;;;;21.32;46.70;98686.72;2071213;28;20516;-64
2023/10/17 00:03:37;;;;;;;3.85;0.70;;;;;;;21.33;46.73;98694.56;2082250;28;20482;-64
2023/10/17 00:04:41;;;;;;;1.27;0.70;;;;;;;21.34;46.33;98695.38;2081297;28;20095;-64
2023/10/17 00:05:43;;;;;;;1.58;0.95;;;;;;;21.33;46.45;98688.34;2081538;28;20102;-64
2023/10/17 00:06:44;;;;;;;3.85;0.75;;;;;;;21.34;46.72;98684.59;2083346;28;21566;-64
2023/10/17 00:07:46;;;;;;;;;;;;;;;21.22;46.81;98692.59;2080264;28;20179;-64
2023/10/17 00:08:50;;;;;;;;;;;;;;;21.14;47.20;98690.97;2081050;28;19940;-63
2023/10/17 00:09:54;;;;;;;0.95;0.50;;;;;;;21.22;46.86;98686.38;2082184;28;20338;-66
2023/10/17 00:10:58;;;;;;;3.03;0.60;;;;;;;21.30;46.15;98692.31;2082106;28;20049;-64
2023/10/17 00:12:03;;;;;;;2.33;0.77;;;;;;;21.34;46.34;98687.28;2084179;28;20052;-64
2023/10/17 00:13:20;;;;;;;2.67;0.90;;;;;;;21.35;46.48;98689.78;2079873;28;20076;-65
2023/10/17 00:14:23;;;;;;;3.03;0.60;;;;;;;21.31;46.68;98690.44;2084208;28;20041;-63
2023/10/17 00:15:28;;;;;;;2.25;0.90;;;;;;;21.31;46.66;98688.59;2080975;28;20042;-65
2023/10/17 00:16:32;;;;;;;5.10;1.00;;;;;;;21.34;46.72;98687.28;2082123;28;20057;-65
2023/10/17 00:17:34;;;;;;;1.67;0.80;;;;;;;21.32;46.43;98692.09;2080311;28;20076;-64
2023/10/17 00:18:35;;;;;;;1.65;0.60;;;;;;;21.32;46.33;98692.94;2080377;28;20056;-63
2023/10/17 00:19:37;;;;;;;2.92;0.80;;;;;;;21.33;46.68;98688.34;2080658;28;20132;-64
2023/10/17 00:20:39;;;;;;;3.60;0.90;;;;;;;21.32;46.45;98698.31;2078357;28;20136;-64
2023/10/17 00:21:41;;;;;;;1.27;0.73;;;;;;;21.35;46.68;98692.47;2080289;28;20103;-64
2023/10/17 00:22:42;;;;;;;6.32;1.30;;;;;;;21.34;46.34;98690.00;2079546;28;20522;-64
2023/10/17 00:23:43;;;;;;;2.97;0.93;;;;;;;21.34;46.41;98690.00;2081589;28;20144;-63
2023/10/17 00:24:46;;;;;;;2.42;1.08;;;;;;;21.35;46.68;98691.66;2082799;28;20053;-64
2023/10/17 00:25:49;;;;;;;1.10;0.47;;;;;;;21.33;46.50;98681.06;2081524;28;20496;-64
2023/10/17 00:26:51;;;;;;;3.85;0.70;;;;;;;21.33;46.43;98688.34;2073987;28;20045;-63
2023/10/17 00:27:51;;;;;;;4.28;1.15;;;;;;;21.35;46.35;98686.28;2082243;28;21178;-62
2023/10/17 00:28:53;;;;;;;4.57;0.60;;;;;;;21.36;46.41;98687.91;2082068;28;20127;-64
2023/10/17 00:29:54;;;;;;;0.90;0.47;;;;;;;21.36;46.29;98679.81;2082776;28;20060;-64
2023/10/17 00:30:57;;;;;;;2.75;0.63;;;;;;;21.36;46.53;98686.03;2079313;28;20056;-64
2023/10/17 00:32:00;;;;;;;5.63;0.77;;;;;;;21.35;46.52;98675.47;2080367;28;20081;-64
2023/10/17 00:33:05;;;;;;;2.88;0.85;;;;;;;21.33;46.42;98682.97;2080896;28;20045;-64
2023/10/17 00:34:13;;;;;;;2.97;0.60;;;;;;;21.32;46.33;98675.91;2079429;28;20049;-64
2023/10/17 00:35:18;;;;;;;2.33;1.00;;;;;;;21.32;46.56;98684.00;2080970;28;20052;-65
2023/10/17 00:36:21;;;;;;;2.08;0.80;;;;;;;21.31;46.11;98675.09;2082001;28;20044;-64
2023/10/17 00:37:30;;;;;;;1.75;0.73;;;;;;;21.31;46.51;98675.09;2081295;28;20134;-64
2023/10/17 00:38:35;;;;;;;1.20;0.47;;;;;;;21.31;46.59;98680.50;2081679;28;20106;-64
2023/10/17 00:39:38;;;;;;;1.00;0.43;;;;;;;21.31;46.44;98675.09;2081689;28;20064;-64
2023/10/17 00:40:45;;;;;;;1.33;0.50;;;;;;;21.30;46.56;98672.59;2084771;28;20059;-65
2023/10/17 00:41:52;;;;;;;1.52;0.70;;;;;;;21.33;46.44;98673.00;2079919;28;20068;-65
2023/10/17 00:42:54;;;;;;;4.43;1.00;;;;;;;21.30;46.45;98673.44;2080353;28;20041;-64
2023/10/17 00:43:55;;;;;;;1.13;0.77;;;;;;;21.30;46.70;98673.44;2080048;28;20045;-65
2023/10/17 00:44:58;;;;;;;2.42;0.60;;;;;;;21.31;46.37;98679.66;2083520;28;20128;-64
2023/10/17 00:46:00;;;;;;;3.17;0.73;;;;;;;21.34;46.57;98679.19;2082349;28;20053;-64
2023/10/17 00:47:02;;;;;;;0.95;0.38;;;;;;;21.32;46.51;98670.53;2082644;28;20503;-64
2023/10/17 00:48:08;;;;;;;3.40;0.98;;;;;;;21.32;46.38;98670.53;2080908;28;20520;-65
2023/10/17 00:49:11;;;;;;;1.75;1.00;;;;;;;21.30;46.34;98675.31;2082167;28;20057;-65
2023/10/17 00:50:13;;;;;;;1.67;0.60;;;;;;;21.31;46.39;98666.16;2082309;28;20053;-63
2023/10/17 00:51:19;;;;;;;1.10;0.57;;;;;;;21.33;46.41;98669.47;2072211;28;20045;-64
2023/10/17 00:52:24;;;;;;;1.90;0.70;;;;;;;21.30;46.22;98669.91;2078644;28;20056;-65
2023/10/17 00:53:27;;;;;;;2.45;0.50;;;;;;;21.29;46.60;98666.41;2085285;28;20098;-65
2023/10/17 00:54:29;;;;;;;1.92;0.88;;;;;;;21.30;46.21;98667.22;2078779;28;20080;-65
2023/10/17 00:55:31;;;;;;;1.63;1.05;;;;;;;21.29;46.40;98670.97;2082189;28;20500;-65
2023/10/17 00:56:32;;;;;;;2.50;1.05;;;;;;;21.32;46.34;98671.34;2081129;28;20080;-65
2023/10/17 00:57:36;;;;;;;1.75;0.60;;;;;;;21.32;46.45;98667.81;2081008;28;20053;-65
2023/10/17 00:58:37;;;;;;;2.00;0.80;;;;;;;21.34;46.21;98679.19;2079209;28;20052;-64
2023/10/17 00:59:44;;;;;;;2.85;1.30;;;;;;;21.32;46.57;98675.91;2080904;28;20561;-65
2023/10/17 01:00:49;;;;;;;1.90;1.35;;;;;;;21.33;46.25;98674.88;2079793;28;20057;-64
2023/10/17 01:01:55;;;;;;;0.88;0.57;;;;;;;21.30;45.50;98670.72;2083630;28;20057;-64
2023/10/17 01:03:01;;;;;;;3.28;0.65;;;;;;;21.31;46.22;98671.56;2081077;28;20077;-64
2023/10/17 01:04:04;;;;;;;2.28;0.55;;;;;;;21.29;46.30;98670.97;2075643;28;20059;-64
2023/10/17 01:05:11;;;;;;;0.98;0.50;;;;;;;21.29;46.29;98662.88;2083134;28;20083;-64
2023/10/17 01:06:23;;;;;;;1.33;0.40;;;;;;;21.29;46.18;98665.56;2082384;28;20056;-65
2023/10/17 01:07:26;;;;;;;3.63;0.70;;;;;;;21.27;45.88;98663.09;2080206;28;20051;-65
2023/10/17 01:08:39;;;;;;;0.75;0.50;;;;;;;21.28;46.45;98664.72;2081198;28;20458;-65
2023/10/17 01:09:40;;;;;;;4.38;1.15;;;;;;;21.27;46.55;98664.97;2079143;28;20076;-65
2023/10/17 01:10:42;;;;;;;4.07;0.98;;;;;;;21.28;46.49;98653.94;2078945;28;20046;-65
2023/10/17 01:11:43;;;;;;;2.17;0.68;;;;;;;21.31;46.42;98652.66;2080199;28;20504;-65
2023/10/17 01:12:53;;;;;;;1.40;0.55;;;;;;;21.32;45.87;98648.94;2081862;28;20416;-65
2023/10/17 01:13:54;;;;;;;2.00;0.88;;;;;;;21.33;46.05;98654.09;2080066;28;20049;-64
2023/10/17 01:14:56;;;;;;;3.17;0.63;;;;;;;21.33;46.32;98651.41;2082716;28;20052;-64
2023/10/17 01:15:58;;;;;;;2.25;0.80;;;;;;;21.34;46.33;98653.06;2079543;28;20543;-65
2023/10/17 01:17:05;;;;;;;0.70;0.50;;;;;;;21.35;45.92;98653.91;2082703;28;20048;-63
2023/10/17 01:18:06;;;;;;;3.30;0.57;;;;;;;21.35;46.15;98649.31;2078600;28;20428;-64
2023/10/17 01:19:11;;;;;;;1.98;0.60;;;;;;;21.33;46.19;98661.38;2079910;28;20045;-64
2023/10/17 01:20:18;;;;;;;2.08;0.88;;;;;;;21.34;45.75;98655.78;2080814;28;20054;-65
2023/10/17 01:21:21;;;;;;;0.77;0.47;;;;;;;21.35;46.24;98648.50;2082040;28;20057;-63
2023/10/17 01:22:22;;;;;;;0.85;0.68;;;;;;;21.35;46.19;98653.91;2070657;28;20049;-64
2023/10/17 01:23:23;;;;;;;;;;;;;;;21.22;46.50;98654.81;2082452;28;20053;-65
2023/10/17 01:24:27;;;;;;;1.38;0.85;;;;;;;21.25;46.35;98648.16;2083301;28;19963;-65
2023/10/17 01:25:29;;;;;;;1.02;0.60;;;;;;;21.31;46.41;98652.66;2079502;28;20060;-64
2023/10/17 01:26:35;;;;;;;5.20;1.23;;;;;;;21.29;46.67;98655.59;2084057;28;20052;-61
2023/10/17 01:27:40;;;;;;;2.40;1.15;;;;;;;21.26;46.54;98653.34;2081273;28;20437;-64
2023/10/17 01:28:46;;;;;;;1.05;0.55;;;;;;;21.28;46.52;98650.41;2079291;28;20512;-65
2023/10/17 01:29:47;;;;;;;3.88;0.82;;;;;;;21.27;46.32;98656.88;2080320;28;20056;-64
2023/10/17 01:30:55;;;;;;;3.03;0.85;;;;;;;21.26;46.64;98650.66;2082802;28;20052;-65
2023/10/17 01:31:57;;;;;;;2.40;0.75;;;;;;;21.27;45.79;98657.69;2079111;28;20045;-63
2023/10/17 01:33:00;;;;;;;1.55;0.70;;;;;;;21.27;46.32;98652.28;2078575;28;20064;-64
2023/10/17 01:34:02;;;;;;;1.70;0.90;;;;;;;21.26;46.72;98652.53;2081250;28;20060;-64
2023/10/17 01:35:05;;;;;;;11.73;1.17;;;;;;;21.26;46.33;98658.75;2079042;28;20055;-65
2023/10/17 01:36:09;;;;;;;3.83;0.60;;;;;;;21.28;46.47;98653.09;2080053;28;20053;-65
2023/10/17 01:37:11;;;;;;;1.85;0.50;;;;;;;21.27;46.47;98651.47;2080584;28;20680;-64
2023/10/17 01:38:13;;;;;;;1.13;0.70;;;;;;;21.29;46.43;98649.38;2078843;28;20056;-65
2023/10/17 01:39:14;;;;;;;0.90;0.50;;;;;;;21.31;46.52;98647.28;2081723;28;20055;-64
2023/10/17 01:40:22;;;;;;;5.00;0.77;;;;;;;21.33;46.03;98650.59;2078682;28;20045;-64
2023/10/17 01:41:25;;;;;;;2.30;0.60;;;;;;;21.30;46.31;98653.72;2079234;28;20087;-65
2023/10/17 01:42:25;;;;;;;0.63;0.60;;;;;;;21.29;46.36;98647.50;2082085;28;20503;-65
2023/10/17 01:43:30;;;;;;;1.05;0.50;;;;;;;21.28;46.05;98642.31;2080723;28;20057;-65
2023/10/17 01:44:31;;;;;;;3.28;0.82;;;;;;;21.28;46.37;98653.09;2078670;28;20122;-64
2023/10/17 01:45:37;;;;;;;1.15;0.40;;;;;;;21.30;46.36;98653.72;2079683;28;20714;-65
2023/10/17 01:46:38;;;;;;;2.85;0.70;;;;;;;21.29;46.55;98660.19;2081278;28;20095;-65
2023/10/17 01:47:40;;;;;;;2.83;0.60;;;;;;;21.28;46.44;98647.72;2081078;28;20052;-64
2023/10/17 01:48:44;;;;;;;2.08;0.73;;;;;;;21.29;46.24;98654.78;2079749;28;20102;-65
2023/10/17 01:49:46;;;;;;;1.23;0.40;;;;;;;21.25;46.29;98651.69;2081419;28;20056;-65
2023/10/17 01:50:47;;;;;;;1.08;0.70;;;;;;;21.26;46.60;98653.34;2082046;28;20049;-65
2023/10/17 01:51:49;;;;;;;1.98;0.55;;;;;;;21.27;46.65;98656.88;2081343;28;20419;-64
2023/10/17 01:52:53;;;;;;;3.90;0.73;;;;;;;21.26;46.62;98660.63;2081046;28;20135;-65
2023/10/17 01:53:54;;;;;;;1.48;0.60;;;;;;;21.24;46.35;98658.13;2078621;28;20046;-64
2023/10/17 01:54:57;;;;;;;3.05;0.65;;;;;;;21.24;46.40;98660.00;2081387;28;20053;-64
2023/10/17 01:56:06;;;;;;;2.72;0.73;;;;;;;21.25;46.51;98659.78;2080845;28;20041;-65
2023/10/17 01:57:08;;;;;;;1.63;0.43;;;;;;;21.23;46.59;98663.72;2080437;28;20690;-64
2023/10/17 01:58:15;;;;;;;1.58;0.68;;;;;;;21.24;45.99;98655.44;2081685;28;20049;-65
2023/10/17 01:59:25;;;;;;;2.25;0.60;;;;;;;21.24;46.71;98666.22;2079548;28;20071;-64
2023/10/17 02:00:36;;;;;;;1.05;0.68;;;;;;;21.23;46.25;98667.28;2085137;28;20438;-65
2023/10/17 02:01:40;;;;;;;0.90;0.50;;;;;;;21.25;46.32;98658.94;2078236;28;20061;-65
2023/10/17 02:02:42;;;;;;;3.10;0.80;;;;;;;21.27;46.30;98662.25;2079577;28;20454;-65
2023/10/17 02:03:45;;;;;;;1.85;0.75;;;;;;;21.25;46.43;98658.94;2080377;28;20055;-65
2023/10/17 02:04:47;;;;;;;1.90;0.95;;;;;;;21.23;46.41;98659.19;2081267;28;20073;-64
2023/10/17 02:05:48;;;;;;;1.90;0.73;;;;;;;21.25;46.17;98665.16;2082786;28;20045;-65
2023/10/17 02:06:50;;;;;;;0.88;0.60;;;;;;;21.25;45.98;98664.34;2082234;28;20072;-65
2023/10/17 02:07:52;;;;;;;1.45;0.60;;;;;;;21.26;46.09;98657.94;2081150;28;20436;-64
2023/10/17 02:08:55;;;;;;;5.82;0.55;;;;;;;21.27;46.14;98659.56;2077904;28;20050;-64
2023/10/17 02:09:56;;;;;;;1.40;0.70;;;;;;;21.25;46.30;98658.94;2080510;28;20046;-65
2023/10/17 02:10:56;;;;;;;1.05;0.60;;;;;;;21.25;46.56;98653.56;2081764;28;20120;-65
2023/10/17 02:12:00;;;;;;;;;;;;;;;21.10;46.73;98652.00;2079733;28;20867;-64
2023/10/17 02:13:04;;;;;;;3.25;0.63;;;;;;;21.12;46.56;98660.72;2079192;28;20410;-66
2023/10/17 02:14:08;;;;;;;1.95;0.88;;;;;;;21.17;46.54;98652.81;2079393;28;20081;-64
2023/10/17 02:15:12;;;;;;;1.23;0.57;;;;;;;21.20;46.70;98651.50;2080694;28;20042;-64
2023/10/17 02:16:13;;;;;;;1.40;0.73;;;;;;;21.22;46.13;98656.69;2078295;28;20707;-65
2023/10/17 02:17:16;;;;;;;2.33;0.57;;;;;;;21.21;46.10;98653.19;2080224;28;20049;-65
2023/10/17 02:18:17;;;;;;;1.33;0.77;;;;;;;21.22;46.24;98656.69;2078962;28;20091;-64
2023/10/17 02:19:21;;;;;;;1.45;0.40;;;;;;;21.21;46.41;98653.19;2081335;28;20080;-64
2023/10/17 02:20:29;;;;;;;1.65;0.75;;;;;;;21.22;46.15;98657.50;2083222;28;20048;-64
2023/10/17 02:21:31;;;;;;;2.13;0.65;;;;;;;21.21;46.46;98653.19;2078300;28;20063;-64
2023/10/17 02:22:31;;;;;;;0.75;0.52;;;;;;;21.22;46.27;98651.31;2080210;28;20064;-65
2023/10/17 02:23:43;;;;;;;;;;;;;;;21.10;46.56;98652.00;2077807;28;20071;-64
2023/10/17 02:24:44;;;;;;;1.17;0.70;;;;;;;21.11;47.02;98652.84;2081411;28;19925;-65
2023/10/17 02:25:45;;;;;;;;;;;;;;;21.03;46.74;98653.09;2083818;28;20495;-63
2023/10/17 02:26:54;;;;;;;0.98;0.43;;;;;;;21.09;46.33;98655.78;2076788;28;19924;-65
2023/10/17 02:27:58;;;;;;;1.50;0.82;;;;;;;21.14;46.75;98664.00;2078206;28;20053;-64
2023/10/17 02:28:59;;;;;;;3.40;1.80;;;;;;;21.15;46.40;98657.59;2076729;28;20049;-63
2023/10/17 02:29:59;;;;;;;3.13;0.55;;;;;;;21.16;46.55;98664.63;2080122;28;20544;-65
2023/10/17 02:31:01;;;;;;;;;;;;;;;21.07;46.47;98648.94;2079259;28;20053;-65
2023/10/17 02:32:02;;;;;;;;;;;;;;;21.02;46.75;98656.84;2080980;28;20445;-65
2023/10/17 02:33:11;;;;;;;1.27;0.73;;;;;;;21.09;46.81;98663.84;2081196;28;19924;-63
2023/10/17 02:34:12;;;;;;;3.65;0.57;;;;;;;21.14;46.38;98663.19;2080626;28;20068;-65
2023/10/17 02:35:15;;;;;;;2.67;0.65;;;;;;;21.17;46.36;98668.97;2079085;28;20081;-64
2023/10/17 02:36:16;;;;;;;0.68;0.40;;;;;;;21.15;46.48;98665.66;2079824;28;20105;-63
2023/10/17 02:37:19;;;;;;;;;;;;;;;21.09;46.25;98660.31;2082453;28;20106;-63
2023/10/17 02:38:20;;;;;;;1.00;0.60;;;;;;;21.13;46.81;98665.06;2076524;28;19932;-65
2023/10/17 02:39:22;;;;;;;0.50;0.43;;;;;;;21.16;46.34;98661.09;2080237;28;20040;-64
2023/10/17 02:40:23;;;;;;;0.80;0.50;;;;;;;21.15;46.54;98654.88;2079243;28;20045;-64
2023/10/17 02:41:25;;;;;;;0.73;0.40;;;;;;;21.16;46.46;98661.09;2079413;28;20055;-64
2023/10/17 02:42:26;;;;;;;0.77;0.50;;;;;;;21.17;46.33;98660.88;2081616;28;20056;-65
2023/10/17 02:43:28;;;;;;;1.48;0.55;;;;;;;21.22;45.86;98659.38;2080231;28;20059;-65
2023/10/17 02:44:31;;;;;;;0.70;0.57;;;;;;;21.20;46.29;98656.91;2079425;28;20041;-64
2023/10/17 02:45:32;;;;;;;1.75;0.80;;;;;;;21.20;46.05;98657.75;2076733;28;20128;-64
2023/10/17 02:46:34;;;;;;;3.13;0.80;;;;;;;21.19;46.02;98656.09;2081846;28;20045;-64
2023/10/17 02:47:35;;;;;;;1.85;0.55;;;;;;;21.20;46.21;98654.19;2080626;28;20431;-65
2023/10/17 02:48:40;;;;;;;1.55;0.47;;;;;;;21.20;46.30;98651.50;2079825;28;20104;-64
2023/10/17 02:49:43;;;;;;;1.90;0.90;;;;;;;21.19;46.41;98658.78;2078402;28;20532;-64
2023/10/17 02:50:58;;;;;;;2.65;0.98;;;;;;;21.22;46.29;98648.59;2078283;28;20362;-65
2023/10/17 02:52:00;;;;;;;2.05;0.98;;;;;;;21.19;46.38;98650.69;2080117;28;20045;-65
2023/10/17 02:53:01;;;;;;;2.20;0.60;;;;;;;21.20;46.50;98649.66;2079403;28;20049;-63
2023/10/17 02:54:09;;;;;;;0.82;0.22;;;;;;;21.20;46.17;98646.97;2080860;28;20132;-65
2023/10/17 02:55:13;;;;;;;2.78;0.77;;;;;;;21.18;46.24;98649.03;2069639;28;20073;-63
2023/10/17 02:56:19;;;;;;;1.80;0.47;;;;;;;21.19;46.67;98648.00;2078949;28;20052;-65
2023/10/17 02:57:22;;;;;;;2.45;0.85;;;;;;;21.20;46.18;98657.75;2080358;28;20106;-64
2023/10/17 02:58:23;;;;;;;2.97;0.60;;;;;;;21.20;46.36;98652.34;2079041;28;20182;-65
2023/10/17 02:59:28;;;;;;;1.33;0.55;;;;;;;21.23;46.23;98655.63;2079900;28;20041;-65
2023/10/17 03:00:33;;;;;;;0.90;0.50;;;;;;;21.21;46.28;98658.56;2079869;28;20053;-64
2023/10/17 03:01:37;;;;;;;1.05;0.60;;;;;;;21.22;46.64;98659.38;2075563;28;20056;-64
2023/10/17 03:02:38;;;;;;;0.75;0.30;;;;;;;21.23;46.68;98663.72;2082565;28;20092;-65
2023/10/17 03:03:40;;;;;;;1.52;1.00;;;;;;;21.23;46.12;98666.44;2079715;28;20741;-65
2023/10/17 03:04:43;;;;;;;1.52;0.77;;;;;;;21.24;46.42;98660.00;2071263;28;20060;-64
2023/10/17 03:05:45;;;;;;;2.58;0.63;;;;;;;21.23;46.60;98661.03;2076645;28;20072;-65
2023/10/17 03:06:53;;;;;;;1.10;0.70;;;;;;;21.20;46.62;98657.75;2074160;28;20053;-65
2023/10/17 03:07:54;;;;;;;1.30;1.02;;;;;;;21.23;46.19;98661.03;2078483;28;20717;-65
2023/10/17 03:09:15;;;;;;;1.00;0.40;;;;;;;21.23;46.24;98659.19;2080066;28;20053;-65
2023/10/17 03:10:20;;;;;;;1.95;0.60;;;;;;;21.20;46.50;98656.91;2078117;28;20045;-64
2023/10/17 03:11:35;;;;;;;1.73;0.60;;;;;;;21.18;46.16;98654.44;2081442;28;20536;-65
2023/10/17 03:12:53;;;;;;;1.95;0.50;;;;;;;21.16;46.60;98645.75;2079682;28;20049;-64
2023/10/17 03:13:56;;;;;;;1.13;0.55;;;;;;;21.14;46.59;98650.50;2080185;28;20160;-65
2023/10/17 03:15:18;;;;;;;0.77;0.35;;;;;;;21.17;46.56;98650.09;2082327;28;20052;-65
2023/10/17 03:16:25;;;;;;;3.20;0.32;;;;;;;21.16;46.42;98656.53;2069901;28;20049;-65
2023/10/17 03:17:26;;;;;;;0.90;0.50;;;;;;;21.16;46.87;98655.69;2078757;28;20086;-65
2023/10/17 03:18:27;;;;;;;2.70;0.80;;;;;;;21.16;46.80;98648.44;2077626;28;20123;-65
2023/10/17 03:19:27;;;;;;;1.15;0.60;;;;;;;21.17;46.62;98647.41;2080989;28;20057;-65
2023/10/17 03:20:40;;;;;;;;;;;;;;;21.04;46.64;98652.91;2073041;28;20053;-65
2023/10/17 03:21:43;;;;;;;0.98;0.47;;;;;;;21.07;46.89;98654.34;2078136;28;20977;-64
2023/10/17 03:22:45;;;;;;;2.25;0.73;;;;;;;21.09;46.39;98661.16;2079327;28;20045;-65
2023/10/17 03:23:49;;;;;;;1.77;0.55;;;;;;;21.12;46.50;98660.72;2079653;28;20057;-64
2023/10/17 03:24:59;;;;;;;1.60;0.60;;;;;;;21.16;46.42;98666.50;2081828;28;20210;-65
2023/10/17 03:26:01;;;;;;;2.22;0.40;;;;;;;21.14;46.39;98664.00;2076940;28;20056;-64
2023/10/17 03:27:04;;;;;;;2.70;0.60;;;;;;;21.14;46.25;98668.56;2080696;28;20088;-65
2023/10/17 03:28:08;;;;;;;1.35;0.63;;;;;;;21.15;46.23;98660.28;2080585;28;20056;-64
2023/10/17 03:29:13;;;;;;;1.20;0.55;;;;;;;21.16;46.50;98666.50;2078014;28;20526;-65
2023/10/17 03:30:19;;;;;;;1.13;0.70;;;;;;;21.17;45.98;98666.28;2079936;28;20487;-64
2023/10/17 03:31:20;;;;;;;1.52;0.50;;;;;;;21.16;46.58;98666.50;2081222;28;20098;-64
2023/10/17 03:32:23;;;;;;;0.88;0.50;;;;;;;21.14;46.39;98665.88;2078318;28;20073;-65
2023/10/17 03:33:26;;;;;;;1.05;0.70;;;;;;;21.15;46.23;98664.84;2079541;28;20102;-65
2023/10/17 03:34:35;;;;;;;1.17;0.63;;;;;;;21.14;46.46;98665.88;2080097;28;20132;-65
2023/10/17 03:35:36;;;;;;;3.38;0.75;;;;;;;21.12;46.67;98663.41;2077584;28;20059;-65
2023/10/17 03:36:41;;;;;;;;;;;;;;;21.02;46.66;98660.38;2080527;28;20088;-64
2023/10/17 03:37:42;;;;;;;1.40;0.50;;;;;;;21.05;46.80;98659.94;2080574;28;20692;-64
2023/10/17 03:38:51;;;;;;;3.88;0.60;;;;;;;21.11;46.77;98658.22;2076273;28;20047;-64
2023/10/17 03:39:55;;;;;;;2.50;0.93;;;;;;;21.12;46.35;98660.72;2082095;28;20077;-63
2023/10/17 03:41:02;;;;;;;0.50;0.40;;;;;;;21.13;46.17;98662.34;2081818;28;20045;-65
2023/10/17 03:42:04;;;;;;;1.65;0.47;;;;;;;21.13;46.46;98656.16;2079767;28;20056;-64
2023/10/17 03:43:11;;;;;;;1.75;0.65;;;;;;;21.15;46.40;98659.47;2081271;28;20445;-65
2023/10/17 03:44:15;;;;;;;2.67;0.47;;;;;;;21.14;46.67;98657.78;2080896;28;20607;-65
2023/10/17 03:45:23;;;;;;;1.00;0.47;;;;;;;21.14;46.71;98652.41;2080643;28;20045;-65
2023/10/17 03:46:26;;;;;;;0.85;0.47;;;;;;;21.14;46.09;98653.22;2083488;28;20049;-65
2023/10/17 03:47:30;;;;;;;1.13;0.43;;;;;;;21.17;46.53;98651.94;2078161;28;20595;-65
2023/10/17 03:48:36;;;;;;;1.13;0.65;;;;;;;21.15;46.44;98644.09;2080815;28;20053;-65
2023/10/17 03:49:37;;;;;;;1.73;0.70;;;;;;;21.15;46.40;98656.75;2082634;28;20072;-64
2023/10/17 03:50:48;;;;;;;2.20;0.40;;;;;;;21.15;46.15;98651.38;2083336;28;20466;-65
2023/10/17 03:51:53;;;;;;;2.67;0.70;;;;;;;21.12;46.70;98649.94;2082438;28;20060;-65
2023/10/17 03:52:54;;;;;;;0.50;0.50;;;;;;;21.13;46.09;98661.53;2081926;28;20099;-65
2023/10/17 03:54:06;;;;;;;2.33;0.50;;;;;;;21.12;46.38;98652.63;2081658;28;20469;-64
2023/10/17 03:55:10;;;;;;;0.35;0.32;;;;;;;21.10;46.38;98668.19;2084816;28;20068;-65
2023/10/17 03:56:23;;;;;;;1.40;1.05;;;;;;;21.12;46.68;98659.91;2082080;28;20773;-65
2023/10/17 03:57:25;;;;;;;1.17;0.50;;;;;;;21.10;46.16;98662.81;2073058;28;20045;-66
2023/10/17 03:58:43;;;;;;;4.38;0.52;;;;;;;21.10;46.62;98657.41;2081655;28;20051;-66
2023/10/17 03:59:51;;;;;;;2.70;0.90;;;;;;;21.08;46.82;98656.78;2083295;28;20427;-65
2023/10/17 04:00:55;;;;;;;1.08;0.50;;;;;;;21.08;46.33;98656.78;2082688;28;20424;-64
2023/10/17 04:01:58;;;;;;;1.42;0.60;;;;;;;21.10;46.24;98654.72;2084157;28;20805;-65
2023/10/17 04:03:04;;;;;;;2.28;0.60;;;;;;;21.09;46.38;98658.47;2081964;28;20046;-66
2023/10/17 04:04:05;;;;;;;2.53;0.57;;;;;;;21.08;46.41;98662.19;2080457;28;20049;-66
2023/10/17 04:05:07;;;;;;;;;;;;;;;20.98;46.27;98660.00;2083734;28;20145;-65
2023/10/17 04:06:18;;;;;;;1.65;1.20;;;;;;;21.01;46.59;98657.91;2073249;28;19928;-65
2023/10/17 04:07:22;;;;;;;1.10;0.60;;;;;;;21.04;46.23;98652.91;2080824;28;20056;-64
2023/10/17 04:08:26;;;;;;;4.68;1.10;;;;;;;21.06;46.67;98660.75;2082908;28;20048;-65
2023/10/17 04:09:31;;;;;;;1.85;0.50;;;;;;;21.07;46.86;98657.03;2083470;28;20083;-65
2023/10/17 04:10:39;;;;;;;2.08;0.88;;;;;;;21.06;46.46;98656.22;2082507;28;20056;-65
2023/10/17 04:11:42;;;;;;;1.27;0.82;;;;;;;21.08;46.43;98664.88;2084537;28;20056;-64
2023/10/17 04:12:49;;;;;;;0.98;0.50;;;;;;;21.06;46.17;98661.59;2082089;28;20059;-65
2023/10/17 04:13:53;;;;;;;2.88;0.50;;;;;;;21.08;46.64;98662.19;2078491;28;20065;-64
2023/10/17 04:14:58;;;;;;;3.22;0.57;;;;;;;21.08;46.38;98664.88;2081904;28;20041;-65
2023/10/17 04:16:08;;;;;;;1.13;0.45;;;;;;;21.06;46.60;98661.59;2083135;28;20056;-64
2023/10/17 04:17:09;;;;;;;1.83;0.77;;;;;;;21.05;46.45;98659.09;2081021;28;20052;-64
2023/10/17 04:18:11;;;;;;;1.00;0.60;;;;;;;21.05;46.30;98661.81;2081459;28;20045;-65
2023/10/17 04:19:17;;;;;;;1.73;0.60;;;;;;;21.05;46.29;98665.31;2082711;28;20080;-65
2023/10/17 04:20:22;;;;;;;1.83;0.73;;;;;;;21.06;46.40;98661.59;2082062;28;20242;-64
2023/10/17 04:21:27;;;;;;;1.27;0.68;;;;;;;21.10;46.63;98667.38;2081798;28;20136;-65
2023/10/17 04:22:30;;;;;;;1.42;0.50;;;;;;;21.06;46.08;98660.75;2080361;28;20099;-65
2023/10/17 04:23:32;;;;;;;1.77;0.50;;;;;;;21.05;46.24;98670.72;2081116;28;20053;-65
2023/10/17 04:24:34;;;;;;;1.08;0.50;;;;;;;21.05;46.42;98670.72;2080465;28;20055;-65
2023/10/17 04:25:38;;;;;;;1.15;0.70;;;;;;;21.05;46.23;98668.03;2075352;28;20739;-65
2023/10/17 04:26:44;;;;;;;1.40;0.60;;;;;;;21.05;46.29;98657.22;2078554;28;20077;-66
2023/10/17 04:27:51;;;;;;;1.92;0.80;;;;;;;21.05;46.08;98659.09;2079028;28;20133;-65
2023/10/17 04:28:52;;;;;;;3.72;0.55;;;;;;;21.03;46.51;98661.19;2081629;28;20064;-65
2023/10/17 04:29:57;;;;;;;0.80;0.47;;;;;;;21.05;46.24;98662.63;2080756;28;20041;-65
2023/10/17 04:30:59;;;;;;;2.05;1.13;;;;;;;21.06;46.32;98661.59;2081835;28;20080;-66
2023/10/17 04:32:04;;;;;;;1.38;0.43;;;;;;;21.06;46.09;98655.34;2081401;28;20127;-66
2023/10/17 04:33:08;;;;;;;4.63;0.50;;;;;;;21.05;46.11;98659.94;2081616;28;20133;-66
2023/10/17 04:34:17;;;;;;;1.83;0.60;;;;;;;21.07;46.08;98651.63;2081638;28;20056;-65
2023/10/17 04:35:20;;;;;;;2.53;1.38;;;;;;;21.06;45.84;98661.59;2080443;28;20052;-65
2023/10/17 04:36:22;;;;;;;1.25;0.80;;;;;;;21.06;46.14;98658.06;2081586;28;20549;-66
2023/10/17 04:37:32;;;;;;;2.28;0.60;;;;;;;21.06;46.11;98660.75;2082267;28;20079;-65
2023/10/17 04:38:40;;;;;;;1.48;0.70;;;;;;;21.04;46.39;98657.47;2079907;28;20433;-64
2023/10/17 04:39:48;;;;;;;2.58;0.60;;;;;;;21.02;45.93;98660.38;2082488;28;20063;-65
2023/10/17 04:41:02;;;;;;;1.55;0.45;;;;;;;21.02;46.34;98659.56;2079546;28;20072;-65
2023/10/17 04:42:09;;;;;;;1.80;0.80;;;;;;;21.02;46.33;98665.75;2072514;28;20488;-64
2023/10/17 04:44:33;;;;;;;1.52;0.93;;;;;;;21.03;46.38;98671.97;2081783;28;20159;-65
2023/10/17 04:45:34;;;;;;;1.45;0.55;;;;;;;21.05;46.37;98680.69;2079712;28;20079;-65
2023/10/17 04:46:49;;;;;;;0.80;0.60;;;;;;;21.05;46.01;98676.09;2082239;28;20057;-65
2023/10/17 04:48:10;;;;;;;1.17;0.40;;;;;;;21.03;46.22;98670.09;2082990;28;20060;-64
2023/10/17 04:49:17;;;;;;;;;;;;;;;20.87;46.65;98676.03;2083788;28;20037;-65
2023/10/17 04:50:21;;;;;;;2.15;1.05;;;;;;;20.93;45.98;98672.47;2079839;28;19929;-65
2023/10/17 04:51:26;;;;;;;1.90;0.68;;;;;;;20.98;46.05;98672.66;2084157;28;20504;-65
2023/10/17 04:52:30;;;;;;;2.00;0.45;;;;;;;20.98;46.10;98672.66;2079826;28;20059;-64
2023/10/17 04:53:35;;;;;;;3.78;0.60;;;;;;;21.00;46.23;98675.13;2072444;28;20092;-64
2023/10/17 04:54:41;;;;;;;1.50;1.20;;;;;;;21.00;46.43;98672.41;2080922;28;20095;-65
2023/10/17 04:56:00;;;;;;;2.20;1.10;;;;;;;21.01;45.94;98677.59;2081169;28;20132;-64
2023/10/17 04:57:02;;;;;;;3.80;0.50;;;;;;;21.00;45.84;98672.41;2082278;28;20048;-65
2023/10/17 04:58:30;;;;;;;2.63;0.98;;;;;;;21.00;46.42;98677.81;2083457;28;20053;-65
2023/10/17 04:59:51;;;;;;;1.13;0.32;;;;;;;20.96;46.55;98672.03;2081333;28;20053;-65
2023/10/17 05:01:12;;;;;;;2.47;0.95;;;;;;;20.93;46.45;98677.88;2080572;28;20049;-64
2023/10/17 05:03:45;;;;;;;1.52;0.63;;;;;;;20.93;46.48;98669.78;2080390;28;20057;-65
2023/10/17 05:06:19;;;;;;;1.95;0.60;;;;;;;20.95;46.57;98668.53;2079822;28;20622;-66
2023/10/17 05:07:27;;;;;;;4.30;0.77;;;;;;;20.94;45.86;98671.41;2075460;28;20095;-65
2023/10/17 05:08:49;;;;;;;2.42;0.50;;;;;;;20.98;46.11;98675.34;2079083;28;20056;-64
2023/10/17 06:16:52;;;;;;;2.85;0.70;;;;;;;20.88;45.94;98718.94;2083222;28;20036;-65